Have a Safe July 4th! 

Flight Track Log - Related Links

Times and Time Zones

All times are in EDT time to prevent confusion due to time zone crossing. See the N934DL flight status page for this flight to view local times or setup timezone preferences in your user account.

Time Position Orientation Groundspeed Altitude Reporting Facility
EDT Latitude Longitude Course Direction KTS MPH feet Rate Location/Type
Sat 11:40:49 AM 33.6331 -84.3931 194° South 440 506 2,700  Level Atlanta Center
Sat 11:41:58 AM 33.6167 -84.3167 104° East 217 250 5,700 2,651 Climbing Atlanta TRACON
Sat 11:42:58 AM 33.5667 -84.2833 151° Southeast 245 282 8,400 1,544 Climbing Atlanta TRACON
Sat 11:44:49 AM 33.4350 -84.2878 182° South 261 300 10,100 1,439 Climbing Atlanta Center
Sat 11:45:49 AM 33.3514 -84.3100 193° South 291 335 12,500 2,450 Climbing Atlanta Center
Sat 11:46:00 AM 33.0608 -84.3802 194° South  Level FlightAware Approximate
Sat 11:46:49 AM 33.2594 -84.3369 194° South 310 357 15,000  Level Atlanta Center
Sat 11:47:49 AM 33.1675 -84.3664 195° South 326 375 16,900 1,650 Climbing Atlanta Center
Sat 11:48:49 AM 33.0758 -84.3908 193° South 340 391 18,300 1,700 Climbing Atlanta Center
Sat 11:49:49 AM 32.9775 -84.4128 191° South 357 411 20,300 1,650 Climbing Atlanta Center
Sat 11:50:49 AM 32.8731 -84.4147 181° South 363 418 21,600 1,000 Climbing Atlanta Center
Sat 11:51:49 AM 32.7750 -84.4069 176° South 375 432 22,300 850 Climbing Atlanta Center
Sat 11:52:49 AM 32.6625 -84.4064 180° South 394 453 23,300 1,150 Climbing Atlanta Center
Sat 11:53:49 AM 32.5414 -84.4058 180° South 417 480 24,600 1,550 Climbing Atlanta Center
Sat 11:54:49 AM 32.4181 -84.4056 180° South 432 497 26,400 1,700 Climbing Atlanta Center
Sat 11:55:49 AM 32.3014 -84.4025 179° South 438 504 28,000 1,500 Climbing Atlanta Center
Sat 11:56:49 AM 32.1803 -84.3997 179° South 438 504 29,400 1,200 Climbing Atlanta Center
Sat 11:57:49 AM 32.0550 -84.3967 179° South 438 504 30,400 1,176 Climbing Atlanta Center
Sat 11:58:31 AM 31.9447 -84.3933 179° South 440 506 31,400 1,294 Climbing Jacksonville Center
Sat 11:59:31 AM 31.8342 -84.3917 179° South 419 482 32,600 1,000 Climbing Jacksonville Center
Sat 12:00:31 PM 31.7150 -84.3922 180° South 419 482 33,400 700 Climbing Jacksonville Center
Sat 12:01:31 PM 31.5961 -84.3878 178° South 424 488 34,000 550 Climbing Jacksonville Center
Sat 12:02:31 PM 31.4733 -84.3589 169° South 432 497 34,500 500 Climbing Jacksonville Center
Sat 12:03:31 PM 31.3547 -84.3061 159° South 442 509 35,000 250 Climbing Jacksonville Center
Sat 12:04:31 PM 31.2364 -84.2533 159° South 452 520 35,000  Level Jacksonville Center
Sat 12:05:31 PM 31.1158 -84.2031 160° South 457 526 35,000  Level Jacksonville Center
Sat 12:06:31 PM 31.0056 -84.1603 162° South 464 534 35,000  Level Jacksonville Center
Sat 12:07:31 PM 30.8850 -84.1103 160° South 464 534 35,000  Level Jacksonville Center
Sat 12:08:31 PM 30.7686 -84.0603 160° South 464 534 35,000  Level Jacksonville Center
Sat 12:09:31 PM 30.6458 -84.0106 161° South 464 534 35,000  Level Jacksonville Center
Sat 12:10:31 PM 30.5167 -83.9608 162° South 459 528 35,000  Level Jacksonville Center
Sat 12:11:31 PM 30.3939 -83.9114 161° South 454 522 35,000  Level Jacksonville Center
Sat 12:12:31 PM 30.2753 -83.8594 159° South 460 529 35,000  Level Jacksonville Center
Sat 12:13:31 PM 30.1525 -83.8125 162° South 460 529 35,000  Level Jacksonville Center
Sat 12:14:31 PM 30.0317 -83.7636 161° South 460 529 35,000  Level Jacksonville Center
Sat 12:15:31 PM 29.9089 -83.7144 161° South 460 529 35,000  Level Jacksonville Center
Sat 12:16:31 PM 29.7881 -83.6656 161° South 460 529 35,000  Level Jacksonville Center
Sat 12:17:31 PM 29.6653 -83.6192 162° South 460 529 35,000  Level Jacksonville Center
Sat 12:18:31 PM 29.5425 -83.5681 160° South 465 535 35,000  Level Jacksonville Center
Sat 12:19:31 PM 29.4194 -83.5197 161° South 465 535 35,000  Level Jacksonville Center
Sat 12:20:31 PM 29.3089 -83.4736 160° South 465 535 35,000  Level Jacksonville Center
Sat 12:21:31 PM 29.1861 -83.4253 161° South 465 535 35,000  Level Jacksonville Center
Sat 12:22:31 PM 29.0631 -83.3772 161° South 465 535 35,000  Level Jacksonville Center
Sat 12:23:31 PM 28.9422 -83.3267 160° South 460 529 35,000  Level Jacksonville Center
Sat 12:24:31 PM 28.8236 -83.2575 153° Southeast 470 541 35,000  Level Jacksonville Center
Sat 12:25:31 PM 28.7047 -83.1883 153° Southeast 475 547 35,000  Level Jacksonville Center
Sat 12:26:31 PM 28.5881 -83.1194 153° Southeast 475 547 35,000  Level Jacksonville Center
Sat 12:29:09 PM 28.2764 -82.9353 152° Southeast 480 552 35,000  Level Miami Center
Sat 12:30:09 PM 28.1603 -82.8678 153° Southeast 475 547 35,000  Level Miami Center
Sat 12:31:09 PM 28.0261 -82.7833 151° Southeast 475 547 35,000  Level Miami Center
Sat 12:32:09 PM 27.9097 -82.7231 155° Southeast 487 560 35,000  Level Miami Center
Sat 12:33:09 PM 27.7867 -82.6675 158° South 478 550 35,000  Level Miami Center
Sat 12:34:09 PM 27.6847 -82.6083 153° Southeast 462 532 35,000  Level Miami Center
Sat 12:35:09 PM 27.5522 -82.5361 154° Southeast 479 551 35,000  Level Miami Center
Sat 12:36:09 PM 27.4336 -82.4719 154° Southeast 484 557 35,000  Level Miami Center
Sat 12:37:09 PM 27.3225 -82.3800 144° Southeast 484 557 35,000 -150 Level Miami Center
Sat 12:38:09 PM 27.2197 -82.2772 138° Southeast 499 574 34,700 -800 Descending Miami Center
Sat 12:39:09 PM 27.1131 -82.1719 139° Southeast 499 574 33,400 -1,250 Descending Miami Center
Sat 12:40:09 PM 27.0125 -82.0717 138° Southeast 493 567 32,200 -1,500 Descending Miami Center
Sat 12:41:09 PM 26.9094 -81.9717 139° Southeast 493 567 30,400 -1,550 Descending Miami Center
Sat 12:42:09 PM 26.8047 -81.8669 138° Southeast 493 567 29,100 -1,250 Descending Miami Center
Sat 12:43:09 PM 26.6994 -81.7650 139° Southeast 493 567 27,900 -1,150 Descending Miami Center
Sat 12:44:09 PM 26.5986 -81.6631 138° Southeast 498 573 26,800 -1,050 Descending Miami Center
Sat 12:45:09 PM 26.5036 -81.5664 138° Southeast 477 549 25,800 -1,050 Descending Miami Center
Sat 12:46:09 PM 26.4025 -81.4675 139° Southeast 477 549 24,700 -1,200 Descending Miami Center
Sat 12:47:09 PM 26.3072 -81.3733 138° Southeast 470 541 23,400 -1,450 Descending Miami Center
Sat 12:48:09 PM 26.2139 -81.2794 138° Southeast 459 528 21,800 -1,785 Descending Miami Center
Sat 12:49:10 PM 26.1228 -81.1906 139° Southeast 454 522 19,800 -2,150 Descending Miami Center
Sat 12:50:09 PM 26.0314 -81.1042 140° Southeast 422 486 17,500 -1,916 Descending Miami Center
Sat 12:51:09 PM 25.9481 -81.0181 137° Southeast 430 495 16,000 -1,050 Descending Miami Center
Sat 12:51:29 PM 25.9156 -80.9914 144° Southeast 407 468 16,100  Climbing Miami Center
Sat 12:52:09 PM 25.8756 -80.9253 124° Southeast 409 471 16,000 -90 Descending Miami Center
Sat 12:52:36 PM 25.8542 -80.8692 113° Southeast 417 480 16,000  Level Miami Center
Sat 12:53:09 PM 25.8392 -80.8042 104° East 394 453 16,000  Level Miami Center
Sat 12:53:37 PM 25.8219 -80.7481 109° East 412 474 16,000 -800 Level Miami Center
Sat 12:54:09 PM 25.8069 -80.6831 104° East 399 459 15,200 -1,742 Descending Miami Center
Sat 12:54:39 PM 25.7894 -80.6250 108° East 403 464 14,200 -1,200 Descending Miami Center
Sat 12:55:09 PM 25.7764 -80.5644 103° East 404 465 14,000 -1,082 Descending Miami Center
Sat 12:55:40 PM 25.7550 -80.5017 111° Southeast 392 451 13,100 -1,000 Descending Miami Center
Sat 12:56:09 PM 25.7458 -80.4483 101° East 399 459 13,000 -984 Descending Miami Center
Sat 12:56:41 PM 25.7267 -80.3856 109° East 393 452 12,100 -1,500 Descending Miami Center
Sat 12:57:09 PM 25.7131 -80.3344 106° East 392 451 11,500 -964 Descending Miami Center
Sat 12:57:37 PM 25.6956 -80.2878 113° Southeast 351 404 11,200 -900 Descending Miami Center
Sat 12:58:09 PM 25.6717 -80.2386 118° Southeast 367 422 10,600 -1,791 Descending Miami Center
Sat 12:58:44 PM 25.6392 -80.1917 128° Southeast 310 357 9,200 -2,100 Descending Miami Center
Sat 12:59:09 PM 25.6294 -80.1661 113° Southeast 325 374 8,500 -2,291 Descending Miami Center
Sat 12:59:39 PM 25.6011 -80.1214 125° Southeast 302 348 7,100 -2,265 Descending Miami Center
Sat 01:00:47 PM 25.6403 -80.0489 59° Northeast 260 299 4,800 -1,610 Descending Miami Center
Sat 01:01:42 PM 25.6833 -80.0822 325° Northwest 204 235 3,800 -982 Descending Miami Center
Sat 01:02:37 PM 25.7094 -80.1336 299° West 211 243 3,000 -934 Descending Miami Center
Sat 01:03:44 PM 25.7394 -80.1922 300° West 169 194 1,900 -896 Descending Miami Center
Sat 01:04:51 PM 25.7614 -80.2367 299° West 151 174 1,000 -769 Descending Miami Center
Sat 01:05:41 PM 25.7775 -80.2692 299° West 141 162 400 -720 Descending Miami Center

Login

Don't have an account? Register now (free) for customized features, flight alerts, and more!